createdAt,value
2022-12-20T00:00:07.294Z,-3.69
2022-12-20T00:01:13.446Z,-3.72
2022-12-20T00:02:16.229Z,-3.72
2022-12-20T00:03:20.741Z,-3.74
2022-12-20T00:04:23.804Z,-3.71
2022-12-20T00:05:26.497Z,-3.68
2022-12-20T00:06:30.073Z,-3.65
2022-12-20T00:07:33.518Z,-3.65
2022-12-20T00:08:37.219Z,-3.69
2022-12-20T00:09:40.389Z,-3.68
2022-12-20T00:10:45.552Z,-3.68
2022-12-20T00:11:51.211Z,-3.68
2022-12-20T00:12:53.861Z,-3.64
2022-12-20T00:13:57.245Z,-3.67
2022-12-20T00:15:00.292Z,-3.66
2022-12-20T00:16:15.250Z,-3.65
2022-12-20T00:17:18.321Z,-3.65
2022-12-20T00:18:21.400Z,-3.66
2022-12-20T00:19:24.742Z,-3.67
2022-12-20T00:20:28.476Z,-3.67
2022-12-20T00:21:33.560Z,-3.69
2022-12-20T00:22:37.941Z,-3.70
2022-12-20T00:23:41.152Z,-3.70
2022-12-20T00:24:43.761Z,-4.16
2022-12-20T00:25:46.529Z,-3.70
2022-12-20T00:26:49.353Z,-3.71
2022-12-20T00:27:52.772Z,-3.69
2022-12-20T00:31:02.312Z,-3.70
2022-12-20T00:32:05.264Z,-3.70
2022-12-20T00:35:30.553Z,-3.69
2022-12-20T00:36:34.340Z,-3.66
2022-12-20T00:40:00.404Z,-3.64
2022-12-20T00:41:06.009Z,-3.61
2022-12-20T00:44:31.404Z,-3.60
2022-12-20T00:45:34.162Z,-3.58
2022-12-20T00:49:03.321Z,-3.62
2022-12-20T00:50:06.793Z,-3.57
2022-12-20T00:53:35.288Z,-3.57
2022-12-20T00:54:38.182Z,-3.54
2022-12-20T00:58:07.299Z,-3.52
2022-12-20T00:59:09.922Z,-3.52
2022-12-20T01:00:13.243Z,-3.50
2022-12-20T01:03:22.334Z,-3.49
2022-12-20T01:04:25.532Z,-3.48
2022-12-20T01:07:51.421Z,-3.43
2022-12-20T01:08:55.233Z,-3.36
2022-12-20T01:12:21.401Z,-3.30
2022-12-20T01:13:24.357Z,-3.26
2022-12-20T01:16:53.332Z,-3.24
2022-12-20T01:17:56.153Z,-3.21
2022-12-20T01:21:25.340Z,-3.23
2022-12-20T01:22:28.366Z,-3.25
2022-12-20T01:25:57.293Z,-3.22
2022-12-20T01:27:00.255Z,-3.24
2022-12-20T01:30:29.286Z,-3.23
2022-12-20T01:31:32.445Z,-3.26
2022-12-20T01:35:01.302Z,-3.24
2022-12-20T01:36:07.116Z,-3.16
2022-12-20T01:39:31.422Z,-3.19
2022-12-20T01:40:34.396Z,-3.18
2022-12-20T01:41:38.699Z,-3.20
2022-12-20T01:44:53.093Z,-3.23
2022-12-20T01:45:56.291Z,-3.21
2022-12-20T01:49:18.401Z,-3.21
2022-12-20T01:50:21.727Z,-3.20
2022-12-20T01:53:48.402Z,-3.18
2022-12-20T01:59:14.137Z,-3.19
2022-12-20T02:00:18.936Z,-3.19
2022-12-20T02:01:23.485Z,-3.19
2022-12-20T02:04:31.988Z,-3.20
2022-12-20T02:05:37.887Z,-3.24
2022-12-20T02:09:01.746Z,-3.25
2022-12-20T02:10:07.701Z,-3.29
2022-12-20T02:13:31.406Z,-3.31
2022-12-20T02:18:58.365Z,-3.28
2022-12-20T02:20:04.068Z,-3.30
2022-12-20T02:21:18.847Z,-3.30
2022-12-20T02:29:08.676Z,-3.25
2022-12-20T02:30:15.739Z,-3.26
2022-12-20T02:33:28.289Z,-3.24
2022-12-20T02:34:33.889Z,-3.29
2022-12-20T02:37:56.379Z,-3.28
2022-12-20T02:38:59.416Z,-3.23
2022-12-20T02:42:28.280Z,-3.22
2022-12-20T02:43:53.369Z,-3.25
2022-12-20T02:45:17.241Z,-3.25
2022-12-20T02:46:23.995Z,-3.26
2022-12-20T02:52:00.732Z,-3.20
2022-12-20T02:53:07.150Z,-3.18
2022-12-20T02:56:28.426Z,-3.14
2022-12-20T03:01:57.297Z,-3.08
2022-12-20T03:03:22.290Z,-3.03
2022-12-20T03:04:28.002Z,-3.03
2022-12-20T03:07:30.220Z,-3.06
2022-12-20T03:10:54.437Z,-3.01
2022-12-20T03:11:57.655Z,-2.96
2022-12-20T03:15:26.261Z,-2.94
2022-12-20T03:16:29.981Z,-2.91
2022-12-20T03:19:58.281Z,-2.91
2022-12-20T03:21:01.260Z,-2.94
2022-12-20T03:24:30.307Z,-2.90
2022-12-20T03:25:33.154Z,-2.91
2022-12-20T03:29:02.269Z,-2.85
2022-12-20T03:30:06.753Z,-2.85
2022-12-20T03:33:33.399Z,-2.87
2022-12-20T03:34:37.181Z,-2.85
2022-12-20T03:38:03.403Z,-2.86
2022-12-20T03:39:06.487Z,-2.87
2022-12-20T03:42:33.391Z,-2.90
2022-12-20T03:43:36.470Z,-2.87
2022-12-20T03:47:03.381Z,-2.91
2022-12-20T03:48:07.656Z,-2.89
2022-12-20T03:51:34.390Z,-2.93
2022-12-20T03:52:37.975Z,-2.93
2022-12-20T03:56:04.396Z,-2.93
2022-12-20T03:57:08.208Z,-2.94
2022-12-20T03:58:10.935Z,-2.93
2022-12-20T03:59:14.561Z,-2.95
2022-12-20T04:00:34.788Z,-2.94
2022-12-20T04:01:39.121Z,-2.93
2022-12-20T04:02:42.336Z,-2.94
2022-12-20T04:05:52.220Z,-3.00
2022-12-20T04:06:55.356Z,-2.95
2022-12-20T04:10:21.379Z,-2.91
2022-12-20T04:11:24.102Z,-2.89
2022-12-20T04:14:52.268Z,-2.83
2022-12-20T04:19:22.727Z,-2.83
2022-12-20T04:20:25.811Z,-2.82
2022-12-20T04:23:52.410Z,-2.83
2022-12-20T04:24:55.180Z,-2.82
2022-12-20T04:28:24.272Z,-2.83
2022-12-20T04:29:27.838Z,-2.84
2022-12-20T04:32:56.259Z,-2.78
2022-12-20T04:34:01.037Z,-2.77
2022-12-20T04:37:26.385Z,-2.76
2022-12-20T04:38:29.496Z,-2.78
2022-12-20T04:39:32.842Z,-2.87
2022-12-20T04:42:41.727Z,-2.83
2022-12-20T04:43:44.567Z,-2.79
2022-12-20T04:47:11.349Z,-2.78
2022-12-20T04:48:54.600Z,-2.76
2022-12-20T04:52:29.798Z,-2.79
2022-12-20T04:53:50.925Z,-2.75
2022-12-20T04:54:56.693Z,-2.70
2022-12-20T04:56:00.052Z,-2.73
2022-12-20T04:57:02.861Z,-2.74
2022-12-20T04:58:07.951Z,-2.76
2022-12-20T04:59:12.665Z,-2.79
2022-12-20T05:02:22.073Z,-2.82
2022-12-20T05:03:26.395Z,-2.85
2022-12-20T05:06:52.359Z,-2.87
2022-12-20T05:07:55.783Z,-2.87
2022-12-20T05:11:22.400Z,-2.92
2022-12-20T05:12:26.413Z,-2.92
2022-12-20T05:15:52.462Z,-2.96
2022-12-20T05:16:56.803Z,-2.96
2022-12-20T05:20:23.557Z,-2.97
2022-12-20T05:21:44.850Z,-2.99
2022-12-20T05:23:06.220Z,-2.97
2022-12-20T05:24:28.806Z,-2.95
2022-12-20T05:25:50.300Z,-3.02
2022-12-20T05:26:53.184Z,-3.02
2022-12-20T05:30:08.755Z,-3.04
2022-12-20T05:31:12.300Z,-3.06
2022-12-20T05:34:38.433Z,-3.09
2022-12-20T05:35:41.891Z,-3.05
2022-12-20T05:40:10.997Z,-3.03
2022-12-20T05:44:41.149Z,-2.96
2022-12-20T05:49:12.267Z,-2.90
2022-12-20T05:53:42.522Z,-2.87
2022-12-20T05:54:46.079Z,-2.84
2022-12-20T05:55:51.661Z,-2.86
2022-12-20T05:57:10.385Z,-2.87
2022-12-20T05:58:13.785Z,-2.87
2022-12-20T05:59:18.104Z,-2.81
2022-12-20T06:02:16.155Z,-2.80
2022-12-20T06:03:19.566Z,-2.81
2022-12-20T06:07:46.923Z,-2.83
2022-12-20T06:12:19.376Z,-2.79
2022-12-20T06:16:47.151Z,-2.69
2022-12-20T06:21:18.440Z,-2.64
2022-12-20T06:22:21.472Z,-2.62
2022-12-20T06:23:24.965Z,-2.60
2022-12-20T06:24:48.503Z,-2.64
2022-12-20T06:25:51.945Z,-2.57
2022-12-20T06:26:55.358Z,-2.58
2022-12-20T06:29:54.670Z,-2.54
2022-12-20T06:30:58.828Z,-2.55
2022-12-20T06:35:25.897Z,-2.46
2022-12-20T06:39:56.034Z,-2.38
2022-12-20T06:44:25.710Z,-2.28
2022-12-20T06:48:58.003Z,-2.26
2022-12-20T06:53:28.041Z,-2.33
2022-12-20T06:54:30.859Z,-2.33
2022-12-20T06:57:28.243Z,-2.37
2022-12-20T06:58:33.430Z,-2.34
2022-12-20T07:02:59.260Z,-2.31
2022-12-20T07:07:28.681Z,-2.31
2022-12-20T07:12:00.700Z,-2.31
2022-12-20T07:16:32.334Z,-2.16
2022-12-20T07:17:35.129Z,-2.14
2022-12-20T07:18:39.366Z,-2.14
2022-12-20T07:19:59.383Z,-2.14
2022-12-20T07:21:04.479Z,-2.10
2022-12-20T07:22:07.667Z,-2.03
2022-12-20T07:25:04.419Z,-2.02
2022-12-20T07:26:08.156Z,-2.01
2022-12-20T07:30:34.758Z,-1.93
2022-12-20T07:35:07.010Z,-1.78
2022-12-20T07:39:36.782Z,-1.64
2022-12-20T07:44:06.996Z,-1.53
2022-12-20T07:45:10.204Z,-1.47
2022-12-20T07:47:47.173Z,-1.41
2022-12-20T07:48:50.422Z,-1.42
2022-12-20T07:49:53.608Z,-1.38
2022-12-20T07:51:02.717Z,-1.32
2022-12-20T07:52:08.387Z,-1.33
2022-12-20T07:53:12.034Z,-1.31
2022-12-20T07:54:29.914Z,-1.32
2022-12-20T07:55:33.984Z,-1.32
2022-12-20T07:56:41.810Z,-1.24
2022-12-20T07:57:55.068Z,-1.25
2022-12-20T07:59:01.152Z,-1.27
2022-12-20T08:00:04.979Z,-1.28
2022-12-20T08:01:14.664Z,-1.29
2022-12-20T08:02:24.468Z,-1.40
2022-12-20T08:03:33.381Z,-1.42
2022-12-20T08:04:36.500Z,-1.44
2022-12-20T08:05:44.431Z,-1.51
2022-12-20T08:06:48.361Z,-1.50
2022-12-20T08:07:59.032Z,-1.48
2022-12-20T08:09:05.485Z,-1.46
2022-12-20T08:10:11.755Z,-1.44
2022-12-20T08:11:15.315Z,-1.43
2022-12-20T08:12:19.595Z,-1.48
2022-12-20T08:13:22.870Z,-1.50
2022-12-20T08:14:25.806Z,-1.48
2022-12-20T08:15:29.212Z,-1.44
2022-12-20T08:16:32.490Z,-1.38
2022-12-20T08:17:35.300Z,-1.33
2022-12-20T08:18:38.395Z,-1.29
2022-12-20T08:19:41.570Z,-1.27
2022-12-20T08:20:44.408Z,-1.20
2022-12-20T08:21:47.160Z,-1.19
2022-12-20T08:22:50.174Z,-1.18
2022-12-20T08:23:53.386Z,-1.14
2022-12-20T08:24:56.050Z,-1.15
2022-12-20T08:26:01.400Z,-1.13
2022-12-20T08:27:04.211Z,-1.18
2022-12-20T08:28:06.911Z,-1.15
2022-12-20T08:29:10.578Z,-1.10
2022-12-20T08:30:14.061Z,-1.07
2022-12-20T08:31:16.844Z,-1.13
2022-12-20T08:32:19.771Z,-1.19
2022-12-20T08:35:23.166Z,-1.20
2022-12-20T08:36:26.201Z,-1.25
2022-12-20T08:40:53.643Z,-1.14
2022-12-20T08:41:56.643Z,-1.11
2022-12-20T08:44:52.970Z,-1.00
2022-12-20T08:45:55.970Z,-0.96
2022-12-20T08:50:23.709Z,-0.87
2022-12-20T08:54:55.536Z,-0.74
2022-12-20T08:59:27.571Z,-0.65
2022-12-20T09:03:59.593Z,-0.45
2022-12-20T09:08:29.671Z,-0.26
2022-12-20T09:09:32.461Z,-0.20
2022-12-20T09:12:29.208Z,-0.13
2022-12-20T09:13:34.410Z,-0.17
2022-12-20T09:14:53.590Z,-0.13
2022-12-20T09:15:56.855Z,-0.10
2022-12-20T09:16:59.645Z,-0.11
2022-12-20T09:18:02.499Z,-0.11
2022-12-20T09:19:06.637Z,-0.10
2022-12-20T09:20:09.885Z,-0.02
2022-12-20T09:21:13.531Z,-0.02
2022-12-20T09:22:16.216Z,-0.05
2022-12-20T09:23:18.932Z,-0.07
2022-12-20T09:24:21.928Z,-0.08
2022-12-20T09:25:24.707Z,-0.04
2022-12-20T09:26:27.931Z,-0.13
2022-12-20T09:27:31.033Z,-0.02
2022-12-20T09:28:34.743Z,0.04
2022-12-20T09:29:37.687Z,0.05
2022-12-20T09:30:40.380Z,0.07
2022-12-20T09:35:09.836Z,0.19
2022-12-20T09:39:41.764Z,0.31
2022-12-20T09:48:38.453Z,0.14
2022-12-20T09:49:45.931Z,0.28
2022-12-20T09:53:25.290Z,0.35
2022-12-20T09:54:51.165Z,0.44
2022-12-20T09:56:00.831Z,0.39
2022-12-20T10:03:10.472Z,0.48
2022-12-20T10:08:46.548Z,1.39
2022-12-20T10:10:26.242Z,1.59
2022-12-20T10:12:07.040Z,2.26
2022-12-20T10:18:00.135Z,3.19
2022-12-20T10:21:02.458Z,3.74
2022-12-20T10:22:05.102Z,3.74
2022-12-20T10:25:32.506Z,3.81
2022-12-20T10:26:35.899Z,3.42
2022-12-20T10:27:43.083Z,3.50
2022-12-20T10:30:39.966Z,2.90
2022-12-20T10:31:43.448Z,3.05
2022-12-20T10:41:18.484Z,1.86
2022-12-20T10:42:03.745Z,2.21
2022-12-20T10:45:21.908Z,3.03
2022-12-20T10:46:36.160Z,3.81
2022-12-20T10:47:43.395Z,4.16
2022-12-20T10:50:35.097Z,4.33
2022-12-20T10:59:36.882Z,3.25
2022-12-20T11:00:40.334Z,2.82
2022-12-20T11:03:59.349Z,2.34
2022-12-20T11:05:11.051Z,2.05
2022-12-20T11:06:18.108Z,1.89
2022-12-20T11:09:34.415Z,1.60
2022-12-20T11:10:37.344Z,1.30
2022-12-20T11:13:58.208Z,1.37
2022-12-20T11:23:41.977Z,3.17
2022-12-20T11:25:06.097Z,3.48
2022-12-20T11:26:31.263Z,3.59
2022-12-20T11:27:40.594Z,3.75
2022-12-20T11:33:31.602Z,3.74
2022-12-20T11:38:58.972Z,3.84
2022-12-20T11:40:17.408Z,3.93
2022-12-20T11:44:15.864Z,3.83
2022-12-20T11:47:43.153Z,3.92
2022-12-20T11:49:04.719Z,4.20
2022-12-20T11:52:37.350Z,3.60
2022-12-20T12:02:25.161Z,3.67
2022-12-20T12:03:34.712Z,3.33
2022-12-20T12:07:17.721Z,2.97
2022-12-20T12:12:35.914Z,2.64
2022-12-20T12:13:40.804Z,2.48
2022-12-20T12:16:54.648Z,2.44
2022-12-20T12:22:03.380Z,2.14
2022-12-20T12:26:55.490Z,2.09
2022-12-20T12:30:21.361Z,1.97
2022-12-20T12:36:02.299Z,1.90
2022-12-20T12:37:26.293Z,2.58
2022-12-20T12:38:44.206Z,2.71
2022-12-20T12:40:25.127Z,2.49
2022-12-20T12:41:55.638Z,2.54
2022-12-20T12:43:40.492Z,2.65
2022-12-20T12:44:57.596Z,2.62
2022-12-20T12:46:03.006Z,2.58
2022-12-20T12:47:19.814Z,2.46
2022-12-20T12:48:23.819Z,2.37
2022-12-20T12:49:30.309Z,2.32
2022-12-20T12:50:42.287Z,2.35
2022-12-20T12:51:52.183Z,2.32
2022-12-20T12:52:59.152Z,2.26
2022-12-20T12:54:10.275Z,2.17
2022-12-20T12:55:34.819Z,2.05
2022-12-20T12:56:51.060Z,2.07
2022-12-20T12:59:34.848Z,1.98
2022-12-20T13:03:03.357Z,1.87
2022-12-20T13:06:50.649Z,1.71
2022-12-20T13:07:55.063Z,1.65
2022-12-20T13:09:03.991Z,1.62
2022-12-20T13:12:34.632Z,1.55
2022-12-20T13:13:37.636Z,1.52
2022-12-20T13:14:40.323Z,1.51
2022-12-20T13:17:52.315Z,1.45
2022-12-20T13:21:28.704Z,1.37
2022-12-20T13:22:31.737Z,1.33
2022-12-20T13:25:51.933Z,1.26
2022-12-20T13:26:55.572Z,1.20
2022-12-20T13:30:18.925Z,1.14
2022-12-20T13:31:21.579Z,1.11
2022-12-20T13:34:50.205Z,1.10
2022-12-20T13:40:05.528Z,1.13
2022-12-20T13:41:29.578Z,1.34
2022-12-20T13:42:42.573Z,1.66
2022-12-20T13:45:36.264Z,2.05
2022-12-20T13:49:09.426Z,2.04
2022-12-20T13:54:43.648Z,1.73
2022-12-20T13:55:47.005Z,1.56
2022-12-20T13:59:20.039Z,1.40
2022-12-20T14:00:25.698Z,1.30
2022-12-20T14:03:45.774Z,1.19
2022-12-20T14:08:59.081Z,1.07
2022-12-20T14:10:04.117Z,1.00
2022-12-20T14:13:02.115Z,0.94
2022-12-20T14:14:05.255Z,0.87
2022-12-20T14:15:31.656Z,0.89
2022-12-20T14:16:34.427Z,0.80
2022-12-20T14:17:42.860Z,0.81
2022-12-20T14:18:50.167Z,0.81
2022-12-20T14:20:09.358Z,0.79
2022-12-20T14:21:12.611Z,0.77
2022-12-20T14:22:15.377Z,0.73
2022-12-20T14:23:23.681Z,0.69
2022-12-20T14:24:26.680Z,0.65
2022-12-20T14:25:54.600Z,0.64
2022-12-20T14:26:57.737Z,0.61
2022-12-20T14:28:00.987Z,0.56
2022-12-20T14:29:11.593Z,0.56
2022-12-20T14:30:32.021Z,0.53
2022-12-20T14:31:41.246Z,0.53
2022-12-20T14:32:49.823Z,0.54
2022-12-20T14:34:27.443Z,0.53
2022-12-20T14:35:32.154Z,0.52
2022-12-20T14:36:36.211Z,0.49
2022-12-20T14:37:41.336Z,0.48
2022-12-20T14:38:50.309Z,0.48
2022-12-20T14:40:04.975Z,0.40
2022-12-20T14:41:33.445Z,0.40
2022-12-20T14:42:38.955Z,0.41
2022-12-20T14:43:41.686Z,0.42
2022-12-20T14:44:45.233Z,0.40
2022-12-20T14:45:50.114Z,0.43
2022-12-20T14:46:59.015Z,0.41
2022-12-20T14:48:07.743Z,0.39
2022-12-20T14:49:24.922Z,0.36
2022-12-20T14:50:37.888Z,0.38
2022-12-20T14:51:44.566Z,0.34
2022-12-20T14:52:48.089Z,0.31
2022-12-20T14:53:51.953Z,0.27
2022-12-20T14:55:10.024Z,0.27
2022-12-20T14:56:31.901Z,0.26
2022-12-20T14:57:36.264Z,0.19
2022-12-20T14:58:42.873Z,0.17
2022-12-20T15:00:16.875Z,0.14
2022-12-20T15:01:31.490Z,0.13
2022-12-20T15:02:47.319Z,0.09
2022-12-20T15:03:56.824Z,0.09
2022-12-20T15:05:01.472Z,0.09
2022-12-20T15:06:05.980Z,0.03
2022-12-20T15:07:32.546Z,0.06
2022-12-20T15:08:38.133Z,0.05
2022-12-20T15:09:44.312Z,0.04
2022-12-20T15:10:52.324Z,0.02
2022-12-20T15:11:58.468Z,-0.03
2022-12-20T15:13:02.457Z,0.00
2022-12-20T15:14:39.426Z,-0.01
2022-12-20T15:15:43.385Z,-0.01
2022-12-20T15:16:51.070Z,-0.04
2022-12-20T15:18:14.195Z,-0.04
2022-12-20T15:21:35.591Z,-0.04
2022-12-20T15:22:39.841Z,-0.07
2022-12-20T15:23:53.275Z,-0.08
2022-12-20T15:24:57.746Z,-0.07
2022-12-20T15:26:00.816Z,-0.10
2022-12-20T15:27:03.695Z,-0.08
2022-12-20T15:28:21.664Z,-0.09
2022-12-20T15:29:26.629Z,-0.14
2022-12-20T15:30:30.351Z,-0.15
2022-12-20T15:31:37.101Z,-0.21
2022-12-20T15:32:54.513Z,-0.24
2022-12-20T15:33:58.775Z,-0.25
2022-12-20T15:35:03.513Z,-0.30
2022-12-20T15:36:07.628Z,-0.35
2022-12-20T15:37:18.424Z,-0.33
2022-12-20T15:38:40.632Z,-0.35
2022-12-20T15:39:47.316Z,-0.39
2022-12-20T15:43:16.190Z,-0.34
2022-12-20T15:44:27.826Z,-0.36
2022-12-20T15:45:30.598Z,-0.38
2022-12-20T15:46:33.677Z,-0.42
2022-12-20T15:47:46.443Z,-0.42
2022-12-20T15:48:49.606Z,-0.44
2022-12-20T15:49:52.691Z,-0.46
2022-12-20T15:53:00.695Z,-0.46
2022-12-20T15:54:07.988Z,-0.47
2022-12-20T15:57:30.955Z,-0.47
2022-12-20T15:58:33.715Z,-0.48
2022-12-20T16:02:02.315Z,-0.48
2022-12-20T16:03:05.588Z,-0.49
2022-12-20T16:06:34.192Z,-0.51
2022-12-20T16:07:36.961Z,-0.52
2022-12-20T16:10:51.666Z,-0.53
2022-12-20T16:11:54.406Z,-0.56
2022-12-20T16:12:57.170Z,-0.50
2022-12-20T16:14:00.602Z,-0.51
2022-12-20T16:15:03.965Z,-0.50
2022-12-20T16:16:07.018Z,-0.48
2022-12-20T16:17:14.223Z,-0.47
2022-12-20T16:18:17.179Z,-0.45
2022-12-20T16:19:20.672Z,-0.44
2022-12-20T16:20:23.635Z,-0.44
2022-12-20T16:21:30.855Z,-0.45
2022-12-20T16:22:33.538Z,-0.44
2022-12-20T16:23:36.260Z,-0.42
2022-12-20T16:24:39.526Z,-0.41
2022-12-20T16:25:42.418Z,-0.42
2022-12-20T16:26:46.320Z,-0.39
2022-12-20T16:27:49.393Z,-0.39
2022-12-20T16:28:54.926Z,-0.38
2022-12-20T16:32:20.287Z,-0.38
2022-12-20T16:33:23.016Z,-0.37
2022-12-20T16:34:25.953Z,-0.37
2022-12-20T16:37:38.979Z,-0.38
2022-12-20T16:38:42.089Z,-0.38
2022-12-20T16:42:04.271Z,-0.38
2022-12-20T16:46:55.100Z,-0.42
2022-12-20T16:47:58.941Z,-0.41
2022-12-20T16:51:24.719Z,-0.42
2022-12-20T16:52:27.510Z,-0.40
2022-12-20T16:55:53.285Z,-0.38
2022-12-20T16:56:57.016Z,-0.38
2022-12-20T17:00:23.416Z,-0.35
2022-12-20T17:01:33.414Z,-0.35
2022-12-20T17:04:55.064Z,-0.29
2022-12-20T17:05:58.060Z,-0.26
2022-12-20T17:10:44.630Z,-0.26
2022-12-20T17:13:56.319Z,-0.30
2022-12-20T17:14:59.073Z,-0.34
2022-12-20T17:18:25.344Z,-0.34
2022-12-20T17:19:28.625Z,-0.35
2022-12-20T17:22:57.185Z,-0.47
2022-12-20T17:24:00.774Z,-0.49
2022-12-20T17:27:27.263Z,-0.50
2022-12-20T17:28:30.143Z,-0.48
2022-12-20T17:29:33.150Z,-0.47
2022-12-20T17:32:41.642Z,-0.47
2022-12-20T17:33:44.377Z,-0.46
2022-12-20T17:37:13.178Z,-0.50
2022-12-20T17:38:16.543Z,-0.51
2022-12-20T17:41:45.181Z,-0.48
2022-12-20T17:42:47.947Z,-0.50
2022-12-20T17:46:17.314Z,-0.47
2022-12-20T17:47:20.140Z,-0.47
2022-12-20T17:51:51.695Z,-0.58
2022-12-20T17:56:24.893Z,-0.56
2022-12-20T18:00:52.851Z,-0.51
2022-12-20T18:01:56.794Z,-0.49
2022-12-20T18:03:00.218Z,-0.48
2022-12-20T18:07:28.635Z,-0.47
2022-12-20T18:10:18.258Z,-0.47
2022-12-20T18:11:23.469Z,-0.47
2022-12-20T18:12:26.200Z,-0.47
2022-12-20T18:13:29.408Z,-0.51
2022-12-20T18:14:32.143Z,-0.48
2022-12-20T18:15:34.775Z,-0.48
2022-12-20T18:16:41.315Z,-0.49
2022-12-20T18:17:44.586Z,-0.55
2022-12-20T18:18:49.006Z,-0.51
2022-12-20T18:19:55.831Z,-0.51
2022-12-20T18:21:07.938Z,-0.52
2022-12-20T18:22:13.971Z,-0.53
2022-12-20T18:23:17.005Z,-0.52
2022-12-20T18:24:21.564Z,-0.52
2022-12-20T18:25:24.331Z,-0.52
2022-12-20T18:26:33.830Z,-0.53
2022-12-20T18:27:39.650Z,-0.53
2022-12-20T18:28:45.275Z,-0.55
2022-12-20T18:29:48.578Z,-0.53
2022-12-20T18:30:51.950Z,-0.58
2022-12-20T18:31:55.079Z,-0.56
2022-12-20T18:32:57.885Z,-0.56
2022-12-20T18:34:01.655Z,-0.56
2022-12-20T18:35:07.265Z,-0.55
2022-12-20T18:36:13.882Z,-0.54
2022-12-20T18:37:18.667Z,-0.55
2022-12-20T18:38:23.495Z,-0.55
2022-12-20T18:39:27.221Z,-0.54
2022-12-20T18:40:30.892Z,-0.54
2022-12-20T18:41:35.232Z,-0.55
2022-12-20T18:42:38.756Z,-0.52
2022-12-20T18:43:44.110Z,-0.53
2022-12-20T18:44:50.348Z,-0.51
2022-12-20T18:45:54.201Z,-0.55
2022-12-20T18:46:58.083Z,-0.55
2022-12-20T18:48:01.296Z,-0.55
2022-12-20T18:49:04.652Z,-0.55
2022-12-20T18:50:09.145Z,-0.55
2022-12-20T18:51:17.978Z,-0.60
2022-12-20T18:52:20.807Z,-0.59
2022-12-20T18:53:23.710Z,-0.59
2022-12-20T18:54:26.858Z,-0.59
2022-12-20T18:55:30.036Z,-0.60
2022-12-20T18:56:37.324Z,-0.60
2022-12-20T18:57:40.409Z,-0.62
2022-12-20T19:02:13.088Z,-0.63
2022-12-20T19:03:17.385Z,-0.67
2022-12-20T19:04:24.573Z,-0.62
2022-12-20T19:05:41.672Z,-0.65
2022-12-20T19:06:45.004Z,-0.66
2022-12-20T19:07:48.917Z,-0.70
2022-12-20T19:10:46.385Z,-0.71
2022-12-20T19:11:56.211Z,-0.74
2022-12-20T19:15:15.917Z,-0.73
2022-12-20T19:16:25.079Z,-0.73
2022-12-20T19:19:45.528Z,-0.72
2022-12-20T19:20:49.725Z,-0.74
2022-12-20T19:25:17.826Z,-0.68
2022-12-20T19:29:49.505Z,-0.66
2022-12-20T19:30:56.565Z,-0.65
2022-12-20T19:33:57.420Z,-0.68
2022-12-20T19:35:16.607Z,-0.71
2022-12-20T19:38:30.640Z,-0.74
2022-12-20T19:39:34.827Z,-0.72
2022-12-20T19:44:01.285Z,-0.71
2022-12-20T19:48:37.824Z,-0.67
2022-12-20T19:53:04.010Z,-0.66
2022-12-20T19:57:48.337Z,-0.68
2022-12-20T20:01:02.435Z,-0.65
2022-12-20T20:02:06.864Z,-0.65
2022-12-20T20:06:34.605Z,-0.66
2022-12-20T20:07:38.613Z,-0.69
2022-12-20T20:10:35.891Z,-0.72
2022-12-20T20:11:38.879Z,-0.72
2022-12-20T20:16:08.035Z,-0.74
2022-12-20T20:20:40.827Z,-0.74
2022-12-20T20:25:07.198Z,-0.75
2022-12-20T20:29:37.921Z,-0.76
2022-12-20T20:34:10.096Z,-0.74
2022-12-20T20:35:13.510Z,-0.79
2022-12-20T20:38:11.481Z,-0.76
2022-12-20T20:39:15.554Z,-0.75
2022-12-20T20:43:41.780Z,-0.77
2022-12-20T20:48:11.116Z,-0.80
2022-12-20T20:52:56.867Z,-0.79
2022-12-20T20:56:10.292Z,-0.78
2022-12-20T20:57:13.416Z,-0.78
2022-12-20T20:58:17.365Z,-0.80
2022-12-20T21:01:15.307Z,-0.81
2022-12-20T21:02:21.103Z,-0.81
2022-12-20T21:06:46.581Z,-0.84
2022-12-20T21:11:16.742Z,-0.84
2022-12-20T21:15:48.410Z,-0.86
2022-12-20T21:20:25.429Z,-0.86
2022-12-20T21:21:29.020Z,-0.86
2022-12-20T21:22:31.817Z,-0.87
2022-12-20T21:23:48.270Z,-0.85
2022-12-20T21:24:51.033Z,-0.86
2022-12-20T21:29:21.985Z,-0.86
2022-12-20T21:30:25.454Z,-0.85
2022-12-20T21:33:21.043Z,-0.86
2022-12-20T21:34:23.688Z,-0.87
2022-12-20T21:38:57.297Z,-0.89
2022-12-20T21:43:25.576Z,-0.91
2022-12-20T21:48:02.763Z,-0.92
2022-12-20T21:51:26.318Z,-0.93
2022-12-20T21:52:30.161Z,-0.93
2022-12-20T21:53:33.272Z,-0.93
2022-12-20T21:56:31.412Z,-0.94
2022-12-20T21:57:35.135Z,-0.94
2022-12-20T22:02:00.080Z,-0.95
2022-12-20T22:06:31.646Z,-0.98
2022-12-20T22:11:04.135Z,-1.00
2022-12-20T22:14:00.522Z,-1.37
2022-12-20T22:15:03.910Z,-1.07
2022-12-20T22:16:08.791Z,-1.10
2022-12-20T22:17:11.626Z,-1.11
2022-12-20T22:18:15.845Z,-1.13
2022-12-20T22:19:18.684Z,-1.13
2022-12-20T22:20:21.807Z,-1.16
2022-12-20T22:21:27.954Z,-1.15
2022-12-20T22:22:30.984Z,-1.19
2022-12-20T22:23:33.840Z,-1.16
2022-12-20T22:24:37.332Z,-1.17
2022-12-20T22:25:40.947Z,-1.16
2022-12-20T22:26:44.065Z,-1.20
2022-12-20T22:27:46.784Z,-1.17
2022-12-20T22:28:53.775Z,-1.19
2022-12-20T22:29:56.428Z,-1.21
2022-12-20T22:30:59.612Z,-1.24
2022-12-20T22:32:02.397Z,-1.24
2022-12-20T22:33:05.180Z,-1.25
2022-12-20T22:34:08.274Z,-1.25
2022-12-20T22:35:11.106Z,-1.26
2022-12-20T22:36:16.159Z,-1.26
2022-12-20T22:37:19.336Z,-1.32
2022-12-20T22:38:23.904Z,-1.29
2022-12-20T22:39:26.750Z,-1.28
2022-12-20T22:40:29.882Z,-1.29
2022-12-20T22:41:34.970Z,-1.29
2022-12-20T22:42:41.419Z,-1.28
2022-12-20T22:43:45.787Z,-1.28
2022-12-20T22:44:48.802Z,-1.29
2022-12-20T22:48:41.086Z,-1.25
2022-12-20T22:49:43.880Z,-1.26
2022-12-20T22:50:46.615Z,-1.27
2022-12-20T22:51:59.342Z,-1.28
2022-12-20T22:53:09.596Z,-1.28
2022-12-20T22:54:12.986Z,-1.27
2022-12-20T22:55:15.954Z,-1.27
2022-12-20T22:56:21.150Z,-1.27
2022-12-20T22:57:24.079Z,-1.26
2022-12-20T22:58:28.079Z,-1.26
2022-12-20T22:59:31.162Z,-1.28
2022-12-20T23:00:34.016Z,-1.29
2022-12-20T23:01:36.785Z,-1.30
2022-12-20T23:02:41.620Z,-1.30
2022-12-20T23:03:45.083Z,-1.30
2022-12-20T23:04:48.010Z,-1.33
2022-12-20T23:05:52.719Z,-1.37
2022-12-20T23:06:55.592Z,-1.42
2022-12-20T23:07:58.797Z,-1.44
2022-12-20T23:09:02.068Z,-1.45
2022-12-20T23:10:25.527Z,-1.46
2022-12-20T23:11:48.209Z,-1.43
2022-12-20T23:13:09.860Z,-1.45
2022-12-20T23:14:39.870Z,-1.43
2022-12-20T23:15:42.675Z,-1.51
2022-12-20T23:16:45.923Z,-1.43
2022-12-20T23:17:48.729Z,-1.44
2022-12-20T23:18:59.924Z,-1.45
2022-12-20T23:20:21.781Z,-1.45
2022-12-20T23:21:43.756Z,-1.46
2022-12-20T23:22:46.441Z,-1.52
2022-12-20T23:23:55.607Z,-1.44
2022-12-20T23:24:58.654Z,-1.45
2022-12-20T23:26:16.148Z,-1.44
2022-12-20T23:27:19.178Z,-1.46
2022-12-20T23:28:22.352Z,-1.46
2022-12-20T23:29:25.752Z,-1.49
2022-12-20T23:30:28.541Z,-1.48
2022-12-20T23:31:32.662Z,-1.47
2022-12-20T23:32:36.218Z,-1.48
2022-12-20T23:33:39.476Z,-1.48
2022-12-20T23:34:42.116Z,-1.48
2022-12-20T23:35:45.120Z,-1.48
2022-12-20T23:36:48.193Z,-1.51
2022-12-20T23:37:51.254Z,-1.50
2022-12-20T23:38:56.982Z,-1.49
2022-12-20T23:39:59.677Z,-1.49
2022-12-20T23:41:10.631Z,-1.84
2022-12-20T23:42:13.929Z,-1.53
2022-12-20T23:43:17.049Z,-1.50
2022-12-20T23:44:19.954Z,-1.52
2022-12-20T23:45:22.643Z,-1.50
2022-12-20T23:46:26.252Z,-1.51
2022-12-20T23:47:29.461Z,-1.55
2022-12-20T23:48:32.972Z,-1.52
2022-12-20T23:49:36.218Z,-1.51
2022-12-20T23:50:38.917Z,-1.52
2022-12-20T23:51:42.730Z,-1.50
2022-12-20T23:52:45.890Z,-1.52
2022-12-20T23:53:51.005Z,-1.52
2022-12-20T23:54:53.986Z,-1.52
2022-12-20T23:56:08.808Z,-1.52
2022-12-20T23:57:12.430Z,-1.50
2022-12-20T23:58:15.783Z,-1.51
2022-12-20T23:59:18.620Z,-1.54
